Rhonda Lamulle — WDC8441 — position and weather

sailwx.info

Track history (hours):
 
Tides and Currents Weather Stations Pressure Air Temp Water Temp Dewpoint Dewpoint Depression Visibility Wind Speed Wind Dir Waves Ship Positions

Rhonda Lamulle

Owner: Florida Marine, LLC, Mandeville, LA. More information available from US FCC via Universal Licensing System and Coast Guard Vessel Documentation Center.

Last reported at 2017-Dec-10 19:12 UTC. Time now 2017-Dec-11 09:44 UTC.
Position N 29°50' W 091°57'.

Length 13 m; draft 3 m.

Type: Towing. MMSI: 367087104.

Date/timePositionNaut miles runAvg speedWind from/ knotsBaromVisibWave heightAir tempDewpointWater temp
2017-Dec-10 19:12N 29°50' W 091°57'1 4.6
2017-Dec-10 18:59N 29°50' W 091°59'2 4.8
2017-Dec-10 18:30N 29°49' W 092°01'2 4.6
2017-Dec-10 18:00N 29°49' W 092°04'2 4.7
2017-Dec-10 17:30N 29°48' W 092°06'2 5.0
2017-Dec-10 17:00N 29°47' W 092°09'2 4.5
2017-Dec-10 16:30N 29°47' W 092°11'2 4.5
2017-Dec-10 16:00N 29°48' W 092°14'2 4.5
2017-Dec-10 15:30N 29°49' W 092°16'2 4.6
2017-Dec-10 15:00N 29°50' W 092°18'2 3.7
2017-Dec-10 14:30N 29°51' W 092°20'2 3.5
2017-Dec-10 13:58N 29°52' W 092°22'2 4.3
2017-Dec-10 13:28N 29°53' W 092°24'2 4.7
2017-Dec-10 13:00N 29°53' W 092°26'2 4.6
2017-Dec-10 12:29N 29°54' W 092°29'29 3.8
2017-Dec-10 04:48N 29°56' W 093°03'1 4.1
2017-Dec-10 04:29N 29°56' W 093°04'2 3.9
2017-Dec-10 04:00N 29°56' W 093°06'2 3.6
2017-Dec-10 03:30N 29°56' W 093°09'2 3.6
2017-Dec-10 03:00N 29°57' W 093°10'2 3.9
2017-Dec-10 02:30N 29°58' W 093°12'2 3.7
2017-Dec-10 02:00N 29°60' W 093°13'1 3.0
2017-Dec-10 01:30N 30°01' W 093°14'1 1.5
2017-Dec-10 01:00N 30°02' W 093°15'0 0.5
2017-Dec-10 00:30N 30°02' W 093°15'1 1.7
2017-Dec-10 00:00N 30°02' W 093°16'2 3.5
2017-Dec-09 23:30N 30°04' W 093°16'2 3.6
2017-Dec-09 23:00N 30°05' W 093°18'0 0.7
2017-Dec-09 22:30N 30°06' W 093°18'1 2.0
2017-Dec-09 22:00N 30°06' W 093°19'0 0.1
2017-Dec-09 21:30N 30°06' W 093°19'0 0.0
2017-Dec-09 21:00N 30°06' W 093°19'0 0.0
2017-Dec-09 20:30N 30°06' W 093°19'1 2.3
2017-Dec-09 20:00N 30°05' W 093°20'2 3.4
2017-Dec-09 19:30N 30°04' W 093°21'1 2.8
2017-Dec-09 19:00N 30°04' W 093°23'0 0.0
2017-Dec-09 18:30N 30°04' W 093°23'1 2.6
2017-Dec-09 18:00N 30°04' W 093°24'2 4.9
2017-Dec-09 17:30N 30°04' W 093°27'2 5.0
2017-Dec-09 17:00N 30°04' W 093°30'2 4.7
2017-Dec-09 16:30N 30°04' W 093°33'3 4.6
2017-Dec-09 15:55N 30°04' W 093°36'2 4.6
2017-Dec-09 15:29N 30°04' W 093°38'2 4.5
2017-Dec-09 15:00N 30°03' W 093°41'2 3.6
2017-Dec-09 14:24N 30°03' W 093°43'69 3.5
2017-Dec-08 18:58N 29°29' W 094°52'3 7.1
2017-Dec-08 18:30N 29°32' W 094°54'3 6.6
2017-Dec-08 18:00N 29°35' W 094°56'3 6.2
2017-Dec-08 17:30N 29°37' W 094°58'2 4.8
2017-Dec-08 17:00N 29°37' W 095°01'0 0.1
2017-Dec-08 16:30N 29°37' W 095°01'0 0.2
2017-Dec-08 16:00N 29°37' W 095°01'0 0.0
2017-Dec-08 15:30N 29°37' W 095°01'0 0.0
2017-Dec-08 15:00N 29°37' W 095°01'0 0.0
2017-Dec-08 14:30N 29°37' W 095°01'0 0.0
2017-Dec-08 14:00N 29°37' W 095°01'0 0.0
2017-Dec-08 13:30N 29°37' W 095°01'0 0.0
2017-Dec-08 13:00N 29°37' W 095°01'0 0.0
2017-Dec-08 12:30N 29°37' W 095°01'0 0.0
2017-Dec-08 12:00N 29°37' W 095°01'0 0.0
2017-Dec-08 11:30N 29°37' W 095°01'0 0.0
2017-Dec-08 11:00N 29°37' W 095°01'0 0.0
2017-Dec-08 10:30N 29°37' W 095°01'0 0.0
2017-Dec-08 10:00N 29°37' W 095°01'0 0.0
2017-Dec-08 09:30N 29°37' W 095°01'0 0.0
2017-Dec-08 09:00N 29°37' W 095°01'0 0.0
2017-Dec-08 08:30N 29°37' W 095°01'0 0.1
2017-Dec-08 08:00N 29°37' W 095°01'2 4.1
2017-Dec-08 07:30N 29°37' W 094°59'2 4.8
2017-Dec-08 07:00N 29°35' W 094°56'4 7.3
2017-Dec-08 06:28N 29°32' W 094°54'0 1.0
2017-Dec-08 06:00N 29°32' W 094°54'0 0.1
2017-Dec-08 05:30N 29°32' W 094°54'1 1.4
2017-Dec-08 05:00N 29°32' W 094°54'3 5.3
2017-Dec-08 04:30N 29°35' W 094°56'3 5.1
2017-Dec-08 04:00N 29°37' W 094°57'3 5.6
2017-Dec-08 03:30N 29°39' W 094°58'3 6.0
2017-Dec-08 03:00N 29°42' W 095°00'3 5.0
2017-Dec-08 02:28N 29°44' W 095°02'2 4.6
2017-Dec-08 02:00N 29°45' W 095°04'2 0.8
2017-Dec-07 23:28N 29°46' W 095°07'0 0.0
2017-Dec-07 08:52N 29°46' W 095°07'0 0.0
2017-Dec-07 08:30N 29°46' W 095°07'0 0.0
2017-Dec-07 07:46N 29°46' W 095°07'0 0.0
2017-Dec-07 07:29N 29°46' W 095°07'0 0.0
2017-Dec-07 07:00N 29°46' W 095°07'0 0.0
2017-Dec-07 06:30N 29°46' W 095°07'0 0.0
2017-Dec-07 06:00N 29°46' W 095°07'0 0.0
2017-Dec-07 05:30N 29°46' W 095°07'0 0.0
2017-Dec-07 04:57N 29°46' W 095°07'0 0.0
2017-Dec-07 04:28N 29°46' W 095°07'0 0.0
2017-Dec-07 04:00N 29°46' W 095°07'0 0.0
2017-Dec-07 03:30N 29°46' W 095°07'0 0.0
2017-Dec-07 02:59N 29°46' W 095°07'0 0.0
2017-Dec-07 02:30N 29°46' W 095°07'0 0.0
2017-Dec-07 01:57N 29°46' W 095°07'0 0.0
2017-Dec-07 01:25N 29°46' W 095°07'  
2017-Dec-04 10:30N 29°50' W 092°01'56 4.5
2017-Dec-03 22:00N 29°36' W 090°58'3 5.8
2017-Dec-03 21:30N 29°34' W 090°56'3 6.0
2017-Dec-03 21:00N 29°32' W 090°53'3 5.7
2017-Dec-03 20:30N 29°32' W 090°50'3 5.9
2017-Dec-03 20:00N 29°32' W 090°46'2 4.9
2017-Dec-03 19:30N 29°34' W 090°44'1 2.6
2017-Dec-03 19:00N 29°35' W 090°43'2 4.1
2017-Dec-03 18:30N 29°37' W 090°42'0 0.8
2017-Dec-03 18:00N 29°37' W 090°42'0 0.0
2017-Dec-03 17:30N 29°37' W 090°42'1 1.4
2017-Dec-03 17:00N 29°36' W 090°41'3 5.4
2017-Dec-03 16:30N 29°35' W 090°38'0 0.2
2017-Dec-03 16:00N 29°35' W 090°38'0 0.0
2017-Dec-03 15:30N 29°35' W 090°38'0 0.0
2017-Dec-03 15:00N 29°35' W 090°38'0 0.0
2017-Dec-03 14:30N 29°35' W 090°38'0 0.0
2017-Dec-03 14:00N 29°35' W 090°38'0 0.0
2017-Dec-03 13:30N 29°35' W 090°38'0 0.0
2017-Dec-03 13:00N 29°35' W 090°38'0 0.0
2017-Dec-03 12:30N 29°35' W 090°38'0 0.0
2017-Dec-03 12:00N 29°35' W 090°38'0 0.0
2017-Dec-03 11:30N 29°35' W 090°38'0 0.0
2017-Dec-03 11:00N 29°35' W 090°38'0 0.0
2017-Dec-03 10:30N 29°35' W 090°38'0 0.0
2017-Dec-03 10:00N 29°35' W 090°38'0 0.0
2017-Dec-03 09:30N 29°35' W 090°38'0 0.0
2017-Dec-03 09:00N 29°35' W 090°38'0 0.0
2017-Dec-03 08:30N 29°35' W 090°38'0 0.0
2017-Dec-03 08:00N 29°35' W 090°38'0 0.0
2017-Dec-03 07:30N 29°35' W 090°38'0 0.0
2017-Dec-03 07:00N 29°35' W 090°38'0 0.0
2017-Dec-03 06:30N 29°35' W 090°38'0 0.0
2017-Dec-03 06:00N 29°35' W 090°38'0 0.0
2017-Dec-03 05:30N 29°35' W 090°38'0 0.0
2017-Dec-03 05:00N 29°35' W 090°38'0 0.0
2017-Dec-03 04:30N 29°35' W 090°38'0 0.0
2017-Dec-03 04:00N 29°35' W 090°38'0 0.0
2017-Dec-03 03:30N 29°35' W 090°38'0 0.0
2017-Dec-03 03:00N 29°35' W 090°38'0 0.9
2017-Dec-03 02:30N 29°35' W 090°38'1 2.4
2017-Dec-03 02:00N 29°35' W 090°37'2 4.0
2017-Dec-03 01:30N 29°34' W 090°34'3 5.3
2017-Dec-03 01:00N 29°34' W 090°31'2 4.8
2017-Dec-03 00:30N 29°34' W 090°29'  
Track history (hours):
 
Tides and Currents Weather Stations Pressure Air Temp Water Temp Dewpoint Dewpoint Depression Visibility Wind Speed Wind Dir Waves Ship Positions

Rhonda Lamulle

Owner: Florida Marine, LLC, Mandeville, LA. More information available from US FCC via Universal Licensing System and Coast Guard Vessel Documentation Center.

Last reported at 2017-Dec-10 19:12 UTC. Time now 2017-Dec-11 09:44 UTC.
Position N 29°50' W 091°57'.

Length 13 m; draft 3 m.

Type: Towing. MMSI: 367087104.

Date/timePositionNaut miles runAvg speedWind from/ knotsBaromVisibWave heightAir tempDewpointWater temp
2017-Dec-10 19:12N 29°50' W 091°57'1 4.6
2017-Dec-10 18:59N 29°50' W 091°59'2 4.8
2017-Dec-10 18:30N 29°49' W 092°01'2 4.6
2017-Dec-10 18:00N 29°49' W 092°04'2 4.7
2017-Dec-10 17:30N 29°48' W 092°06'2 5.0
2017-Dec-10 17:00N 29°47' W 092°09'2 4.5
2017-Dec-10 16:30N 29°47' W 092°11'2 4.5
2017-Dec-10 16:00N 29°48' W 092°14'2 4.5
2017-Dec-10 15:30N 29°49' W 092°16'2 4.6
2017-Dec-10 15:00N 29°50' W 092°18'2 3.7
2017-Dec-10 14:30N 29°51' W 092°20'2 3.5
2017-Dec-10 13:58N 29°52' W 092°22'2 4.3
2017-Dec-10 13:28N 29°53' W 092°24'2 4.7
2017-Dec-10 13:00N 29°53' W 092°26'2 4.6
2017-Dec-10 12:29N 29°54' W 092°29'29 3.8
2017-Dec-10 04:48N 29°56' W 093°03'1 4.1
2017-Dec-10 04:29N 29°56' W 093°04'2 3.9
2017-Dec-10 04:00N 29°56' W 093°06'2 3.6
2017-Dec-10 03:30N 29°56' W 093°09'2 3.6
2017-Dec-10 03:00N 29°57' W 093°10'2 3.9
2017-Dec-10 02:30N 29°58' W 093°12'2 3.7
2017-Dec-10 02:00N 29°60' W 093°13'1 3.0
2017-Dec-10 01:30N 30°01' W 093°14'1 1.5
2017-Dec-10 01:00N 30°02' W 093°15'0 0.5
2017-Dec-10 00:30N 30°02' W 093°15'1 1.7
2017-Dec-10 00:00N 30°02' W 093°16'2 3.5
2017-Dec-09 23:30N 30°04' W 093°16'2 3.6
2017-Dec-09 23:00N 30°05' W 093°18'0 0.7
2017-Dec-09 22:30N 30°06' W 093°18'1 2.0
2017-Dec-09 22:00N 30°06' W 093°19'0 0.1
2017-Dec-09 21:30N 30°06' W 093°19'0 0.0
2017-Dec-09 21:00N 30°06' W 093°19'0 0.0
2017-Dec-09 20:30N 30°06' W 093°19'1 2.3
2017-Dec-09 20:00N 30°05' W 093°20'2 3.4
2017-Dec-09 19:30N 30°04' W 093°21'1 2.8
2017-Dec-09 19:00N 30°04' W 093°23'0 0.0
2017-Dec-09 18:30N 30°04' W 093°23'1 2.6
2017-Dec-09 18:00N 30°04' W 093°24'2 4.9
2017-Dec-09 17:30N 30°04' W 093°27'2 5.0
2017-Dec-09 17:00N 30°04' W 093°30'2 4.7
2017-Dec-09 16:30N 30°04' W 093°33'3 4.6
2017-Dec-09 15:55N 30°04' W 093°36'2 4.6
2017-Dec-09 15:29N 30°04' W 093°38'2 4.5
2017-Dec-09 15:00N 30°03' W 093°41'2 3.6
2017-Dec-09 14:24N 30°03' W 093°43'69 3.5
2017-Dec-08 18:58N 29°29' W 094°52'3 7.1
2017-Dec-08 18:30N 29°32' W 094°54'3 6.6
2017-Dec-08 18:00N 29°35' W 094°56'3 6.2
2017-Dec-08 17:30N 29°37' W 094°58'2 4.8
2017-Dec-08 17:00N 29°37' W 095°01'0 0.1
2017-Dec-08 16:30N 29°37' W 095°01'0 0.2
2017-Dec-08 16:00N 29°37' W 095°01'0 0.0
2017-Dec-08 15:30N 29°37' W 095°01'0 0.0
2017-Dec-08 15:00N 29°37' W 095°01'0 0.0
2017-Dec-08 14:30N 29°37' W 095°01'0 0.0
2017-Dec-08 14:00N 29°37' W 095°01'0 0.0
2017-Dec-08 13:30N 29°37' W 095°01'0 0.0
2017-Dec-08 13:00N 29°37' W 095°01'0 0.0
2017-Dec-08 12:30N 29°37' W 095°01'0 0.0
2017-Dec-08 12:00N 29°37' W 095°01'0 0.0
2017-Dec-08 11:30N 29°37' W 095°01'0 0.0
2017-Dec-08 11:00N 29°37' W 095°01'0 0.0
2017-Dec-08 10:30N 29°37' W 095°01'0 0.0
2017-Dec-08 10:00N 29°37' W 095°01'0 0.0
2017-Dec-08 09:30N 29°37' W 095°01'0 0.0
2017-Dec-08 09:00N 29°37' W 095°01'0 0.0
2017-Dec-08 08:30N 29°37' W 095°01'0 0.1
2017-Dec-08 08:00N 29°37' W 095°01'2 4.1
2017-Dec-08 07:30N 29°37' W 094°59'2 4.8
2017-Dec-08 07:00N 29°35' W 094°56'4 7.3
2017-Dec-08 06:28N 29°32' W 094°54'0 1.0
2017-Dec-08 06:00N 29°32' W 094°54'0 0.1
2017-Dec-08 05:30N 29°32' W 094°54'1 1.4
2017-Dec-08 05:00N 29°32' W 094°54'3 5.3
2017-Dec-08 04:30N 29°35' W 094°56'3 5.1
2017-Dec-08 04:00N 29°37' W 094°57'3 5.6
2017-Dec-08 03:30N 29°39' W 094°58'3 6.0
2017-Dec-08 03:00N 29°42' W 095°00'3 5.0
2017-Dec-08 02:28N 29°44' W 095°02'2 4.6
2017-Dec-08 02:00N 29°45' W 095°04'2 0.8
2017-Dec-07 23:28N 29°46' W 095°07'0 0.0
2017-Dec-07 08:52N 29°46' W 095°07'0 0.0
2017-Dec-07 08:30N 29°46' W 095°07'0 0.0
2017-Dec-07 07:46N 29°46' W 095°07'0 0.0
2017-Dec-07 07:29N 29°46' W 095°07'0 0.0
2017-Dec-07 07:00N 29°46' W 095°07'0 0.0
2017-Dec-07 06:30N 29°46' W 095°07'0 0.0
2017-Dec-07 06:00N 29°46' W 095°07'0 0.0
2017-Dec-07 05:30N 29°46' W 095°07'0 0.0
2017-Dec-07 04:57N 29°46' W 095°07'0 0.0
2017-Dec-07 04:28N 29°46' W 095°07'0 0.0
2017-Dec-07 04:00N 29°46' W 095°07'0 0.0
2017-Dec-07 03:30N 29°46' W 095°07'0 0.0
2017-Dec-07 02:59N 29°46' W 095°07'0 0.0
2017-Dec-07 02:30N 29°46' W 095°07'0 0.0
2017-Dec-07 01:57N 29°46' W 095°07'0 0.0
2017-Dec-07 01:25N 29°46' W 095°07'  
2017-Dec-04 10:30N 29°50' W 092°01'56 4.5
2017-Dec-03 22:00N 29°36' W 090°58'3 5.8
2017-Dec-03 21:30N 29°34' W 090°56'3 6.0
2017-Dec-03 21:00N 29°32' W 090°53'3 5.7
2017-Dec-03 20:30N 29°32' W 090°50'3 5.9
2017-Dec-03 20:00N 29°32' W 090°46'2 4.9
2017-Dec-03 19:30N 29°34' W 090°44'1 2.6
2017-Dec-03 19:00N 29°35' W 090°43'2 4.1
2017-Dec-03 18:30N 29°37' W 090°42'0 0.8
2017-Dec-03 18:00N 29°37' W 090°42'0 0.0
2017-Dec-03 17:30N 29°37' W 090°42'1 1.4
2017-Dec-03 17:00N 29°36' W 090°41'3 5.4
2017-Dec-03 16:30N 29°35' W 090°38'0 0.2
2017-Dec-03 16:00N 29°35' W 090°38'0 0.0
2017-Dec-03 15:30N 29°35' W 090°38'0 0.0
2017-Dec-03 15:00N 29°35' W 090°38'0 0.0
2017-Dec-03 14:30N 29°35' W 090°38'0 0.0
2017-Dec-03 14:00N 29°35' W 090°38'0 0.0
2017-Dec-03 13:30N 29°35' W 090°38'0 0.0
2017-Dec-03 13:00N 29°35' W 090°38'0 0.0
2017-Dec-03 12:30N 29°35' W 090°38'0 0.0
2017-Dec-03 12:00N 29°35' W 090°38'0 0.0
2017-Dec-03 11:30N 29°35' W 090°38'0 0.0
2017-Dec-03 11:00N 29°35' W 090°38'0 0.0
2017-Dec-03 10:30N 29°35' W 090°38'0 0.0
2017-Dec-03 10:00N 29°35' W 090°38'0 0.0
2017-Dec-03 09:30N 29°35' W 090°38'0 0.0
2017-Dec-03 09:00N 29°35' W 090°38'0 0.0
2017-Dec-03 08:30N 29°35' W 090°38'0 0.0
2017-Dec-03 08:00N 29°35' W 090°38'0 0.0
2017-Dec-03 07:30N 29°35' W 090°38'0 0.0
2017-Dec-03 07:00N 29°35' W 090°38'0 0.0
2017-Dec-03 06:30N 29°35' W 090°38'0 0.0
2017-Dec-03 06:00N 29°35' W 090°38'0 0.0
2017-Dec-03 05:30N 29°35' W 090°38'0 0.0
2017-Dec-03 05:00N 29°35' W 090°38'0 0.0
2017-Dec-03 04:30N 29°35' W 090°38'0 0.0
2017-Dec-03 04:00N 29°35' W 090°38'0 0.0
2017-Dec-03 03:30N 29°35' W 090°38'0 0.0
2017-Dec-03 03:00N 29°35' W 090°38'0 0.9
2017-Dec-03 02:30N 29°35' W 090°38'1 2.4
2017-Dec-03 02:00N 29°35' W 090°37'2 4.0
2017-Dec-03 01:30N 29°34' W 090°34'3 5.3
2017-Dec-03 01:00N 29°34' W 090°31'2 4.8
2017-Dec-03 00:30N 29°34' W 090°29'  

Dump ship's entire track history